Terminal Aerodrome Forecast
Issued by NWS

Home | Current Version | Previous Version | Text Only | Print | Product List | Glossary On
Versions: 1 2 3 4 5 6 7 8 9 10 11 12 13 14 15 16 17
523
FTUS43 KEAX 191139 AAB
TAFSTJ
TAF AMD
KSTJ 191139Z 1912/2012 11010KT P6SM -SHRA VCTS SCT060CB BKN200
      TEMPO 1912/1915 6SM -TSRA BKN050CB
     FM191700 13010KT P6SM SCT050 BKN130
     FM192200 13012KT P6SM VCTS SCT050CB
     FM200600 18005KT P6SM BKN008=

USA.gov is the U.S. government's official web portal to all federal, state and local government web resources and services.